Aeroporto :
LOGIN :

Iscrizione | Disclaimer

   EN    FR    IT 

 










Sommario :    VFR   VFR Marginale   IFR   IFR Intensivo   IFR Molto Intensivo
Visibilità : 
Base nubi : 
>= 8 km
>= 3000ft
5 / 8 km
1000 / 3000 ft
1500m / 5 km
500 / 1000 ft
800 / 1500m
200 / 500 ft
< 800m
< 200 ft
Simboli :   Temporali  Nebbia  Neve Forte  Precipitazioni Forti  Vento > 20 kt
SIGMETs :   Varie  Temporali  Ghiacco  Turbolenza  Onda orograficha  Ceneri Vulcaniche






- Altitudine del aeroporto : 1300 ft
- Codice IATA : LIG


LFBL - Limoges

ULTIMO METAR :
  • 191500Z AUTO 03005KT 330V060 9999 OVC032 08/01 Q1016 NOSIG

METARs OBSOLETI :
  • 191430Z AUTO 02004KT 320V040 9999 FEW032 07/01 Q1016 NOSIG
  • 191400Z AUTO 34005KT 260V060 9999 SCT032 08/02 Q1016 NOSIG
  • 191330Z AUTO 34004KT 300V050 9999 BKN032 07/01 Q1016 NOSIG
  • 191300Z AUTO 36005KT 280V090 9999 BKN031 08/02 Q1016 NOSIG
  • 191230Z AUTO VRB03KT 9999 BKN030 BKN035 07/01 Q1017 NOSIG

TAF TAF LFBL
Valido dal 19 a 12 ore il 20 a 12 ore UTC


191100Z 1912/2012 05004KT 9999 BKN023
BECMG 1914/1916 06010KT CAVOK
ATIS : +33 5 55 48 40 37



MetMap, La meteo Aeronautica in un colpo d'occhio ! - Copyright ORBIFLY Dicembre 2007 - Disclaimer

ORBIFLY MET'MAP TEAM :

Programmazione e sviluppo : Alexandra Zaïnal
Concezione e sviluppo : Baudouin d'Aumeries
Co-Programmazione e sviluppo : Marc-Olivier Méhu
Supporto tecnico e logistico : Manuel Goepfert
Aiuto per la traduzione : Arnaldo La Scala

Contatto : metmap@orbifly.com




FONTI E CREDITI :

   NOAA